createdAt,value
2019-05-14T00:02:13.577Z,95.20
2019-05-14T00:04:44.217Z,95.00
2019-05-14T00:07:14.670Z,95.10
2019-05-14T00:09:45.349Z,95.20
2019-05-14T00:12:16.087Z,95.00
2019-05-14T00:14:47.521Z,94.90
2019-05-14T00:17:18.148Z,95.10
2019-05-14T00:20:02.709Z,95.50
2019-05-14T00:22:21.820Z,95.60
2019-05-14T00:24:52.498Z,95.60
2019-05-14T00:27:24.552Z,95.70
2019-05-14T00:29:55.275Z,95.70
2019-05-14T00:32:26.037Z,95.70
2019-05-14T00:34:56.826Z,95.70
2019-05-14T00:37:27.493Z,95.40
2019-05-14T00:39:58.050Z,95.20
2019-05-14T00:42:28.637Z,94.40
2019-05-14T00:45:01.242Z,94.30
2019-05-14T00:47:32.945Z,94.70
2019-05-14T00:50:03.629Z,94.90
2019-05-14T00:52:34.194Z,95.00
2019-05-14T00:55:05.340Z,94.70
2019-05-14T00:57:36.136Z,94.80
2019-05-14T01:00:07.355Z,95.00
2019-05-14T01:02:38.224Z,95.00
2019-05-14T01:05:12.174Z,95.20
2019-05-14T01:07:42.499Z,95.20
2019-05-14T01:10:13.605Z,95.30
2019-05-14T01:12:44.577Z,95.30
2019-05-14T01:15:15.553Z,95.30
2019-05-14T01:17:46.369Z,95.30
2019-05-14T01:20:17.003Z,95.30
2019-05-14T01:22:51.396Z,95.20
2019-05-14T01:25:23.597Z,95.20
2019-05-14T01:27:54.617Z,95.20
2019-05-14T01:30:25.109Z,95.20
2019-05-14T01:32:55.735Z,95.30
2019-05-14T01:35:26.329Z,95.30
2019-05-14T01:37:57.063Z,95.40
2019-05-14T01:40:28.033Z,95.50
2019-05-14T01:42:58.505Z,95.30
2019-05-14T01:45:31.451Z,95.30
2019-05-14T01:48:01.783Z,95.10
2019-05-14T01:50:32.511Z,95.40
2019-05-14T01:53:04.093Z,95.60
2019-05-14T01:55:34.984Z,95.60
2019-05-14T01:58:05.772Z,95.60
2019-05-14T02:00:36.486Z,95.50
2019-05-14T02:03:07.133Z,95.40
2019-05-14T02:05:37.943Z,95.50
2019-05-14T02:08:08.755Z,95.60
2019-05-14T02:10:39.290Z,95.50
2019-05-14T02:13:12.124Z,95.50
2019-05-14T02:15:42.990Z,95.40
2019-05-14T02:18:13.816Z,95.70
2019-05-14T02:20:44.668Z,95.70
2019-05-14T02:23:15.287Z,95.80
2019-05-14T02:25:45.840Z,95.90
2019-05-14T02:28:16.574Z,95.60
2019-05-14T02:30:56.965Z,95.90
2019-05-14T02:33:19.669Z,95.80
2019-05-14T02:35:50.335Z,95.60
2019-05-14T02:38:20.920Z,95.90
2019-05-14T02:40:52.060Z,96.00
2019-05-14T02:43:22.579Z,96.20
2019-05-14T02:46:09.476Z,96.00
2019-05-14T02:48:25.611Z,96.00
2019-05-14T02:50:56.137Z,96.00
2019-05-14T02:53:29.684Z,96.30
2019-05-14T02:56:00.794Z,96.10
2019-05-14T02:58:31.658Z,96.10
2019-05-14T03:01:02.423Z,96.10
2019-05-14T03:03:33.274Z,96.20
2019-05-14T03:06:03.975Z,96.20
2019-05-14T03:08:34.500Z,96.10
2019-05-14T03:11:05.230Z,96.20
2019-05-14T03:13:36.156Z,96.20
2019-05-14T03:16:22.162Z,96.20
2019-05-14T03:18:39.831Z,96.20
2019-05-14T03:21:10.457Z,96.10
2019-05-14T03:23:41.403Z,96.20
2019-05-14T03:26:12.067Z,96.10
2019-05-14T03:28:42.991Z,96.20
2019-05-14T03:31:13.783Z,96.20
2019-05-14T03:33:45.069Z,96.30
2019-05-14T03:36:23.652Z,96.40
2019-05-14T03:38:50.231Z,96.40
2019-05-14T03:41:21.262Z,96.50
2019-05-14T03:43:52.259Z,96.30
2019-05-14T03:46:41.214Z,96.30
2019-05-14T03:48:55.854Z,96.30
2019-05-14T03:51:29.594Z,96.40
2019-05-14T03:54:06.697Z,96.50
2019-05-14T03:56:31.728Z,96.60
2019-05-14T03:59:02.523Z,96.40
2019-05-14T04:01:33.674Z,96.40
2019-05-14T04:04:04.202Z,96.40
2019-05-14T04:06:35.074Z,96.20
2019-05-14T04:09:09.661Z,96.30
2019-05-14T04:11:42.943Z,96.30
2019-05-14T04:14:19.845Z,96.40
2019-05-14T04:17:08.089Z,96.40
2019-05-14T04:19:25.539Z,96.30
2019-05-14T04:21:59.890Z,96.40
2019-05-14T04:24:31.727Z,96.40
2019-05-14T04:27:07.741Z,96.40
2019-05-14T04:29:39.570Z,96.20
2019-05-14T04:32:11.462Z,96.30
2019-05-14T04:34:43.170Z,96.30
2019-05-14T04:37:14.051Z,96.20
2019-05-14T04:39:44.944Z,96.30
2019-05-14T04:42:16.027Z,96.30
2019-05-14T04:44:49.988Z,96.30
2019-05-14T04:47:31.463Z,96.30
2019-05-14T04:49:51.183Z,96.40
2019-05-14T04:52:21.925Z,96.40
2019-05-14T04:54:59.193Z,96.40
2019-05-14T04:57:29.949Z,96.00
2019-05-14T05:00:00.531Z,95.90
2019-05-14T05:02:32.256Z,95.90
2019-05-14T05:05:02.879Z,95.80
2019-05-14T05:07:33.474Z,95.70
2019-05-14T05:10:04.507Z,95.70
2019-05-14T05:12:38.563Z,96.00
2019-05-14T05:15:09.574Z,95.70
2019-05-14T05:17:48.170Z,95.60
2019-05-14T05:20:12.541Z,95.40
2019-05-14T05:22:43.125Z,95.40
2019-05-14T05:25:14.249Z,95.40
2019-05-14T05:27:45.752Z,95.20
2019-05-14T05:30:18.863Z,95.30
2019-05-14T05:32:49.519Z,95.30
2019-05-14T05:35:20.534Z,95.60
2019-05-14T05:37:51.112Z,95.60
2019-05-14T05:40:21.692Z,95.60
2019-05-14T05:42:52.219Z,95.60
2019-05-14T05:45:22.780Z,95.40
2019-05-14T05:47:58.129Z,95.60
2019-05-14T05:50:25.735Z,95.70
2019-05-14T05:52:58.539Z,95.70
2019-05-14T05:55:28.975Z,95.90
2019-05-14T05:58:00.133Z,96.00
2019-05-14T06:00:40.124Z,96.50
2019-05-14T06:03:12.078Z,96.00
2019-05-14T06:05:43.480Z,95.70
2019-05-14T06:08:14.260Z,95.50
2019-05-14T06:10:44.882Z,95.30
2019-05-14T06:13:18.122Z,95.10
2019-05-14T06:15:52.149Z,95.30
2019-05-14T06:18:22.277Z,95.30
2019-05-14T06:20:53.271Z,95.10
2019-05-14T06:23:24.054Z,95.10
2019-05-14T06:25:54.869Z,95.20
2019-05-14T06:28:32.164Z,95.00
2019-05-14T06:30:58.883Z,94.90
2019-05-14T06:33:30.016Z,95.20
2019-05-14T06:36:02.140Z,95.00
2019-05-14T06:38:33.276Z,94.70
2019-05-14T06:41:04.219Z,94.70
2019-05-14T06:43:35.129Z,94.70
2019-05-14T06:46:08.694Z,94.70
2019-05-14T06:48:39.691Z,94.80
2019-05-14T06:51:10.605Z,94.70
2019-05-14T06:53:41.300Z,94.50
2019-05-14T06:56:12.163Z,94.70
2019-05-14T06:58:42.819Z,94.80
2019-05-14T07:01:13.501Z,94.70
2019-05-14T07:03:44.781Z,94.80
2019-05-14T07:06:18.348Z,94.50
2019-05-14T07:08:50.560Z,94.70
2019-05-14T07:11:24.331Z,94.50
2019-05-14T07:13:55.347Z,94.70
2019-05-14T07:16:28.491Z,94.90
2019-05-14T07:18:59.194Z,95.00
2019-05-14T07:21:29.927Z,94.80
2019-05-14T07:24:00.729Z,94.70
2019-05-14T07:26:31.905Z,94.60
2019-05-14T07:29:02.823Z,94.70
2019-05-14T07:31:33.914Z,94.90
2019-05-14T07:34:04.656Z,94.90
2019-05-14T07:36:38.515Z,95.40
2019-05-14T07:39:09.561Z,95.10
2019-05-14T07:41:40.725Z,94.40
2019-05-14T07:44:11.380Z,93.20
2019-05-14T07:46:42.318Z,92.50
2019-05-14T07:49:13.015Z,92.80
2019-05-14T07:51:43.952Z,93.20
2019-05-14T07:54:14.540Z,93.60
2019-05-14T07:56:45.482Z,93.80
2019-05-14T07:59:18.107Z,93.40
2019-05-14T08:01:49.215Z,93.70
2019-05-14T08:04:20.125Z,93.40
2019-05-14T08:06:50.953Z,92.70
2019-05-14T08:09:22.157Z,92.40
2019-05-14T08:11:52.926Z,92.40
2019-05-14T08:14:23.588Z,92.80
2019-05-14T08:16:54.354Z,93.00
2019-05-14T08:19:27.893Z,93.00
2019-05-14T08:21:58.702Z,92.50
2019-05-14T08:24:30.214Z,92.90
2019-05-14T08:27:00.757Z,93.00
2019-05-14T08:29:31.371Z,92.50
2019-05-14T08:32:02.184Z,92.50
2019-05-14T08:34:33.062Z,92.50
2019-05-14T08:37:04.302Z,92.40
2019-05-14T08:39:38.856Z,93.10
2019-05-14T08:42:08.888Z,93.30
2019-05-14T08:44:39.689Z,93.40
2019-05-14T08:47:10.884Z,93.60
2019-05-14T08:49:46.474Z,93.70
2019-05-14T08:52:16.180Z,93.90
2019-05-14T08:54:49.055Z,93.70
2019-05-14T08:57:19.294Z,93.40
2019-05-14T08:59:50.614Z,93.60
2019-05-14T09:02:21.368Z,93.30
2019-05-14T09:04:54.570Z,93.30
2019-05-14T09:07:25.344Z,93.30
2019-05-14T09:09:55.915Z,92.90
2019-05-14T09:12:28.080Z,92.60
2019-05-14T09:14:59.039Z,92.30
2019-05-14T09:17:30.113Z,92.20
2019-05-14T09:20:06.606Z,91.90
2019-05-14T09:22:33.442Z,92.00
2019-05-14T09:25:04.143Z,92.70
2019-05-14T09:27:34.639Z,93.10
2019-05-14T09:30:05.897Z,92.30
2019-05-14T09:32:38.764Z,92.80
2019-05-14T09:35:10.073Z,92.30
2019-05-14T09:37:41.257Z,91.90
2019-05-14T09:40:12.029Z,92.10
2019-05-14T09:42:42.687Z,92.10
2019-05-14T09:45:14.103Z,92.40
2019-05-14T09:47:49.821Z,92.70
2019-05-14T09:50:22.867Z,92.70
2019-05-14T09:52:49.769Z,92.70
2019-05-14T09:55:20.416Z,92.70
2019-05-14T09:57:51.068Z,92.80
2019-05-14T10:00:22.595Z,93.10
2019-05-14T10:02:54.213Z,93.50
2019-05-14T10:05:25.510Z,92.60
2019-05-14T10:07:59.269Z,92.70
2019-05-14T10:10:30.494Z,93.30
2019-05-14T10:13:01.964Z,92.90
2019-05-14T10:15:32.870Z,92.70
2019-05-14T10:18:03.429Z,93.20
2019-05-14T10:20:40.986Z,93.60
2019-05-14T10:23:06.028Z,92.70
2019-05-14T10:25:40.221Z,92.80
2019-05-14T10:28:09.247Z,93.00
2019-05-14T10:30:39.736Z,93.10
2019-05-14T10:33:14.905Z,92.90
2019-05-14T10:35:42.857Z,93.20
2019-05-14T10:38:13.749Z,92.70
2019-05-14T10:40:45.401Z,92.70
2019-05-14T10:43:16.145Z,92.20
2019-05-14T10:45:49.191Z,92.20
2019-05-14T10:48:19.079Z,92.20
2019-05-14T10:50:58.980Z,91.90
2019-05-14T10:53:22.527Z,92.10
2019-05-14T10:55:53.527Z,92.10
2019-05-14T10:58:29.070Z,91.70
2019-05-14T11:00:59.491Z,91.50
2019-05-14T11:03:30.406Z,91.60
2019-05-14T11:06:01.255Z,91.70
2019-05-14T11:08:31.923Z,91.40
2019-05-14T11:11:03.995Z,91.00
2019-05-14T11:13:34.966Z,90.90
2019-05-14T11:16:08.400Z,91.40
2019-05-14T11:18:39.915Z,91.60
2019-05-14T11:21:25.597Z,92.00
2019-05-14T11:23:43.143Z,92.30
2019-05-14T11:26:13.848Z,92.60
2019-05-14T11:28:44.676Z,92.10
2019-05-14T11:31:15.329Z,92.50
2019-05-14T11:33:46.223Z,92.50
2019-05-14T11:36:18.808Z,92.70
2019-05-14T11:38:50.841Z,92.30
2019-05-14T11:41:21.502Z,92.30
2019-05-14T11:43:52.021Z,92.50
2019-05-14T11:46:38.702Z,92.00
2019-05-14T11:48:55.473Z,92.00
2019-05-14T11:51:56.188Z,91.60
2019-05-14T11:53:59.536Z,91.90
2019-05-14T11:56:30.345Z,91.80
2019-05-14T11:59:01.291Z,91.80
2019-05-14T12:01:31.759Z,91.80
2019-05-14T12:04:02.468Z,91.90
2019-05-14T12:06:33.143Z,92.10
2019-05-14T12:09:04.810Z,92.20
2019-05-14T12:11:35.514Z,92.40
2019-05-14T12:14:08.590Z,92.00
2019-05-14T12:16:40.101Z,92.10
2019-05-14T12:19:11.964Z,92.70
2019-05-14T12:21:58.805Z,92.60
2019-05-14T12:24:18.446Z,92.70
2019-05-14T12:26:49.728Z,92.40
2019-05-14T12:29:20.955Z,92.40
2019-05-14T12:31:51.684Z,93.00
2019-05-14T12:34:22.621Z,92.90
2019-05-14T12:36:53.397Z,93.00
2019-05-14T12:39:25.180Z,93.40
2019-05-14T12:41:58.068Z,93.60
2019-05-14T12:44:29.092Z,93.60
2019-05-14T12:47:00.918Z,93.40
2019-05-14T12:49:31.584Z,93.50
2019-05-14T12:52:17.894Z,93.80
2019-05-14T12:54:34.765Z,94.00
2019-05-14T12:57:05.407Z,94.20
2019-05-14T12:59:37.954Z,94.20
2019-05-14T13:02:09.681Z,94.30
2019-05-14T13:04:40.722Z,94.40
2019-05-14T13:07:11.392Z,94.40
2019-05-14T13:09:42.359Z,94.60
2019-05-14T13:12:13.194Z,94.60
2019-05-14T13:14:44.084Z,95.40
2019-05-14T13:17:14.842Z,95.00
2019-05-14T13:19:45.783Z,95.10
2019-05-14T13:22:20.851Z,95.10
2019-05-14T13:24:49.627Z,94.80
2019-05-14T13:27:20.359Z,94.70
2019-05-14T13:29:51.156Z,94.80
2019-05-14T13:32:21.976Z,95.00
2019-05-14T13:34:52.398Z,94.90
2019-05-14T13:37:23.605Z,95.00
2019-05-14T13:39:54.092Z,94.80
2019-05-14T13:42:25.118Z,94.50
2019-05-14T13:44:55.692Z,94.60
2019-05-14T13:47:28.778Z,95.00
2019-05-14T13:49:59.517Z,95.10
2019-05-14T13:52:30.361Z,94.80
2019-05-14T13:55:01.026Z,94.60
2019-05-14T13:57:31.897Z,94.50
2019-05-14T14:00:02.529Z,94.40
2019-05-14T14:02:34.770Z,94.50
2019-05-14T14:05:05.698Z,94.50
2019-05-14T14:07:39.460Z,94.50
2019-05-14T14:10:10.462Z,93.80
2019-05-14T14:12:41.542Z,94.10
2019-05-14T14:15:12.605Z,94.30
2019-05-14T14:17:43.738Z,93.60
2019-05-14T14:20:15.445Z,93.10
2019-05-14T14:22:48.889Z,93.40
2019-05-14T14:25:18.872Z,94.10
2019-05-14T14:27:49.618Z,93.80
2019-05-14T14:30:20.563Z,94.40
2019-05-14T14:32:51.339Z,94.40
2019-05-14T14:35:24.098Z,94.50
2019-05-14T14:37:54.526Z,93.90
2019-05-14T14:40:26.473Z,94.10
2019-05-14T14:43:03.406Z,94.30
2019-05-14T14:45:34.387Z,94.60
2019-05-14T14:48:04.966Z,95.20
2019-05-14T14:50:35.457Z,95.10
2019-05-14T14:53:09.105Z,94.80
2019-05-14T14:55:40.043Z,94.50
2019-05-14T14:58:11.856Z,94.50
2019-05-14T15:00:42.750Z,94.60
2019-05-14T15:03:13.463Z,94.70
2019-05-14T15:05:44.058Z,94.90
2019-05-14T15:08:14.625Z,94.90
2019-05-14T15:10:45.270Z,94.70
2019-05-14T15:13:17.009Z,94.70
2019-05-14T15:15:49.538Z,94.40
2019-05-14T15:18:20.180Z,94.50
2019-05-14T15:20:50.804Z,94.20
2019-05-14T15:23:21.367Z,94.50
2019-05-14T15:25:52.158Z,94.70
2019-05-14T15:28:22.895Z,94.50
2019-05-14T15:30:53.957Z,94.30
2019-05-14T15:33:24.933Z,94.30
2019-05-14T15:35:58.145Z,94.40
2019-05-14T15:38:30.271Z,94.40
2019-05-14T15:41:00.543Z,94.60
2019-05-14T15:43:31.428Z,94.70
2019-05-14T15:46:02.373Z,94.50
2019-05-14T15:48:32.958Z,94.50
2019-05-14T15:51:03.375Z,94.50
2019-05-14T15:53:34.255Z,94.50
2019-05-14T15:56:04.680Z,94.30
2019-05-14T15:58:35.535Z,94.20
2019-05-14T16:01:06.260Z,93.90
2019-05-14T16:03:37.134Z,93.80
2019-05-14T16:06:09.178Z,93.60
2019-05-14T16:08:40.352Z,93.50
2019-05-14T16:11:12.454Z,93.40
2019-05-14T16:13:43.119Z,93.80
2019-05-14T16:16:13.999Z,93.90
2019-05-14T16:18:44.642Z,93.90
2019-05-14T16:21:15.215Z,93.60
2019-05-14T16:23:45.850Z,93.50
2019-05-14T16:26:18.786Z,93.70
2019-05-14T16:28:49.266Z,93.70
2019-05-14T16:31:19.986Z,93.60
2019-05-14T16:33:50.712Z,93.40
2019-05-14T16:36:21.380Z,93.50
2019-05-14T16:38:52.068Z,93.60
2019-05-14T16:41:22.604Z,93.90
2019-05-14T16:43:53.324Z,93.70
2019-05-14T16:46:24.073Z,93.90
2019-05-14T16:48:54.728Z,94.20
2019-05-14T16:51:25.564Z,94.40
2019-05-14T16:53:56.148Z,94.50
2019-05-14T16:56:28.443Z,94.50
2019-05-14T16:58:59.220Z,94.50
2019-05-14T17:01:33.449Z,94.70
2019-05-14T17:04:01.960Z,95.00
2019-05-14T17:06:34.814Z,95.30
2019-05-14T17:09:08.823Z,95.20
2019-05-14T17:11:39.386Z,95.40
2019-05-14T17:14:10.088Z,95.50
2019-05-14T17:16:40.906Z,95.60
2019-05-14T17:19:11.686Z,95.70
2019-05-14T17:21:42.876Z,95.70
2019-05-14T17:24:13.381Z,95.60
2019-05-14T17:26:44.163Z,95.50
2019-05-14T17:29:16.498Z,95.50
2019-05-14T17:31:49.354Z,95.60
2019-05-14T17:34:20.145Z,95.80
2019-05-14T17:36:51.094Z,95.80
2019-05-14T17:39:22.060Z,95.90
2019-05-14T17:41:52.913Z,96.00
2019-05-14T17:44:23.816Z,96.10
2019-05-14T17:46:54.757Z,96.10
2019-05-14T17:49:28.212Z,96.20
2019-05-14T17:51:58.283Z,96.20
2019-05-14T17:54:29.527Z,96.20
2019-05-14T17:57:00.574Z,96.20
2019-05-14T17:59:33.534Z,96.20
2019-05-14T18:02:03.615Z,96.30
2019-05-14T18:04:34.566Z,96.50
2019-05-14T18:07:05.570Z,96.50
2019-05-14T18:09:36.620Z,96.60
2019-05-14T18:12:08.298Z,96.60
2019-05-14T18:14:39.310Z,96.70
2019-05-14T18:17:10.182Z,96.70
2019-05-14T18:19:41.358Z,96.90
2019-05-14T18:22:12.343Z,96.70
2019-05-14T18:24:43.396Z,96.80
2019-05-14T18:27:14.122Z,96.80
2019-05-14T18:29:45.052Z,96.80
2019-05-14T18:32:15.875Z,97.00
2019-05-14T18:34:48.606Z,97.00
2019-05-14T18:37:19.014Z,97.00
2019-05-14T18:39:49.956Z,97.10
2019-05-14T18:42:21.041Z,97.00
2019-05-14T18:44:51.874Z,96.90
2019-05-14T18:47:22.980Z,96.90
2019-05-14T18:49:53.553Z,96.90
2019-05-14T18:52:24.220Z,97.10
2019-05-14T18:54:55.277Z,97.00
2019-05-14T18:57:25.966Z,96.90
2019-05-14T18:59:56.784Z,97.00
2019-05-14T19:02:29.284Z,97.00
2019-05-14T19:05:00.633Z,96.90
2019-05-14T19:07:31.690Z,96.80
2019-05-14T19:10:02.388Z,96.80
2019-05-14T19:12:34.331Z,96.80
2019-05-14T19:15:08.506Z,96.90
2019-05-14T19:17:38.865Z,97.10
2019-05-14T19:20:10.676Z,97.10
2019-05-14T19:22:41.410Z,97.20
2019-05-14T19:25:12.175Z,97.50
2019-05-14T19:27:42.834Z,97.50
2019-05-14T19:30:13.830Z,97.40
2019-05-14T19:32:44.800Z,97.40
2019-05-14T19:35:15.477Z,97.30
2019-05-14T19:37:48.563Z,97.20
2019-05-14T19:40:19.952Z,97.10
2019-05-14T19:42:50.727Z,97.10
2019-05-14T19:45:21.210Z,97.20
2019-05-14T19:47:52.152Z,97.10
2019-05-14T19:50:22.599Z,97.30
2019-05-14T19:52:53.442Z,97.20
2019-05-14T19:55:24.206Z,97.20
2019-05-14T19:57:55.131Z,97.10
2019-05-14T20:00:28.786Z,97.10
2019-05-14T20:02:59.702Z,97.50
2019-05-14T20:05:30.158Z,97.50
2019-05-14T20:08:00.850Z,97.50
2019-05-14T20:10:31.441Z,97.30
2019-05-14T20:13:02.093Z,97.20
2019-05-14T20:15:32.792Z,97.30
2019-05-14T20:18:03.393Z,97.30
2019-05-14T20:20:34.291Z,97.40
2019-05-14T20:23:05.196Z,97.30
2019-05-14T20:25:38.572Z,97.30
2019-05-14T20:28:08.869Z,97.20
2019-05-14T20:30:39.880Z,97.20
2019-05-14T20:33:10.790Z,97.20
2019-05-14T20:35:41.757Z,97.30
2019-05-14T20:38:13.060Z,97.30
2019-05-14T20:40:44.284Z,97.30
2019-05-14T20:43:15.039Z,97.30
2019-05-14T20:45:48.611Z,97.20
2019-05-14T20:48:18.828Z,97.30
2019-05-14T20:50:50.054Z,97.20
2019-05-14T20:53:20.820Z,97.10
2019-05-14T20:55:51.424Z,97.30
2019-05-14T20:58:23.868Z,97.30
2019-05-14T21:00:54.509Z,97.30
2019-05-14T21:03:25.222Z,97.30
2019-05-14T21:05:58.215Z,97.20
2019-05-14T21:08:28.359Z,97.20
2019-05-14T21:10:59.486Z,97.10
2019-05-14T21:13:30.580Z,97.10
2019-05-14T21:16:01.318Z,97.40
2019-05-14T21:18:35.071Z,97.00
2019-05-14T21:21:04.885Z,97.00
2019-05-14T21:23:35.610Z,97.10
2019-05-14T21:26:08.426Z,96.90
2019-05-14T21:28:39.329Z,97.10
2019-05-14T21:31:10.513Z,97.10
2019-05-14T21:33:41.602Z,97.10
2019-05-14T21:36:12.515Z,97.10
2019-05-14T21:38:44.788Z,97.20
2019-05-14T21:41:15.676Z,97.20
2019-05-14T21:43:46.249Z,97.30
2019-05-14T21:46:19.210Z,97.30
2019-05-14T21:48:49.299Z,97.30
2019-05-14T21:51:20.201Z,97.40
2019-05-14T21:53:50.977Z,97.60
2019-05-14T21:56:21.998Z,97.50
2019-05-14T21:58:52.783Z,97.40
2019-05-14T22:01:24.099Z,97.50
2019-05-14T22:03:54.690Z,97.50
2019-05-14T22:06:25.409Z,97.40
2019-05-14T22:08:56.126Z,97.50
2019-05-14T22:11:28.234Z,97.50
2019-05-14T22:13:58.997Z,97.40
2019-05-14T22:16:29.598Z,97.30
2019-05-14T22:19:00.239Z,97.40
2019-05-14T22:21:31.024Z,97.50
2019-05-14T22:24:02.700Z,97.40
2019-05-14T22:26:33.217Z,97.40
2019-05-14T22:29:03.968Z,97.40
2019-05-14T22:31:35.114Z,97.40
2019-05-14T22:34:05.694Z,97.40
2019-05-14T22:36:38.450Z,97.30
2019-05-14T22:39:08.454Z,97.40
2019-05-14T22:41:39.108Z,97.30
2019-05-14T22:44:09.744Z,97.60
2019-05-14T22:46:40.507Z,97.50
2019-05-14T22:49:11.864Z,97.40
2019-05-14T22:51:42.465Z,97.40
2019-05-14T22:54:13.145Z,97.40
2019-05-14T22:56:43.825Z,97.50
2019-05-14T22:59:14.418Z,97.50
2019-05-14T23:01:44.837Z,97.50
2019-05-14T23:04:15.428Z,97.70
2019-05-14T23:06:46.144Z,97.60
2019-05-14T23:09:18.988Z,97.30
2019-05-14T23:11:49.547Z,97.50
2019-05-14T23:14:20.235Z,97.60
2019-05-14T23:16:51.071Z,97.40
2019-05-14T23:19:25.356Z,97.50
2019-05-14T23:21:57.915Z,97.50
2019-05-14T23:24:28.625Z,97.70
2019-05-14T23:26:59.520Z,97.70
2019-05-14T23:29:30.116Z,97.60
2019-05-14T23:32:00.539Z,97.60
2019-05-14T23:34:31.255Z,97.60
2019-05-14T23:37:02.662Z,97.60
2019-05-14T23:39:33.760Z,97.60
2019-05-14T23:42:04.662Z,97.80
2019-05-14T23:44:35.245Z,97.80
2019-05-14T23:47:08.174Z,97.70
2019-05-14T23:49:38.947Z,97.90
2019-05-14T23:52:09.656Z,97.90
2019-05-14T23:54:40.359Z,97.90
2019-05-14T23:57:11.104Z,97.80
2019-05-14T23:59:48.681Z,97.90
